Etusivu
METAR-TAF:

METAR-TAF

Lentoasemat :

Sønderborg, Tanska

Leveyspiiri: 54-58N, Pituuspiiri: 009-47E, korkeus merenpinnasta: 7 m

Tämänhetkinen sää

Tämä raportti tehtiin 29 minuuttia sitten, kello 10.21 UTC
Tuuli 6 kn idästä
Lämpötila 4°C
Kosteus 100%
Ilmanpaine 1026 hPa
Näkyvyys: 8000 m
Pilvistä 500 ft:n korkeudessa

METAR: EKSB 281021Z 09006KT 8000 OVC005 04/04 Q1026

Aika: 11:50 (10:50 UTC)

Sääennuste

Tämä raportti tehtiin 19 tuntia ja 48 minuuttia sitten, kello 15.02 UTC
Ennuste voimassa 27. päivästä klo 15 UTC - 27. päivään klo 19 UTC
Tuuli 2 kn eri suunnista
Näkyvyys: 8000 m
Muutamia pilviä 1000 ft:n korkeudessa
Ajoittain
27. päivästä klo 15 UTC - 27. päivään klo 17 UTC
Näkyvyys: 0300 m
200 ft:n korkeudessa
sumuhattaroita
Tulossa
27. päivästä klo 17 UTC - 27. päivään klo 19 UTC
Näkyvyys: 0100 m
200 ft:n korkeudessa
sumua

TAF: EKSB 271502Z 2715/2719 VRB02KT 8000 FEW010 TEMPO 2715/2717 0300 BCFG VV002 BECMG 2717/2719 0100 FG VV002

Säähavainnot ja -ennusteet yli 4000 lentoasemalta (METAR- ja TAF-raportit).

Käytössä olevat sääasemat on merkitty karttaan keltaisilla ja punaisilla pisteillä.

Aseta hiiri pisteen päälle nähdäksesi sääaseman nimen.

Klikkaa sitten nähdäksesi säähavainnot ja -ennusteet.

Kartan vaihtaminen: klikkaa mustalla rastilla varustettuja vihreitä pisteitä, niin voit zoomata sisään; viivalla varustettua vihreää pistettä, niin voit zoomata ulos tai vihreitä nuolia, niin pääset viereisille kartoille.


METAR-TAF: